createdAt,value
2017-08-02T00:00:38.356Z,1006.91
2017-08-02T00:01:38.335Z,1006.93
2017-08-02T00:02:38.314Z,1006.93
2017-08-02T00:03:38.294Z,1006.95
2017-08-02T00:04:38.274Z,1006.95
2017-08-02T00:05:38.253Z,1006.94
2017-08-02T00:06:38.232Z,1006.93
2017-08-02T00:07:38.212Z,1006.91
2017-08-02T00:08:38.191Z,1006.95
2017-08-02T00:09:38.170Z,1006.93
2017-08-02T00:10:38.149Z,1006.94
2017-08-02T00:11:38.129Z,1006.96
2017-08-02T00:12:38.108Z,1006.96
2017-08-02T00:13:38.086Z,1006.96
2017-08-02T00:14:38.068Z,1006.97
2017-08-02T00:15:38.047Z,1006.98
2017-08-02T00:16:38.025Z,1006.95
2017-08-02T00:17:38.005Z,1006.97
2017-08-02T00:18:37.984Z,1006.93
2017-08-02T00:19:37.963Z,1006.97
2017-08-02T00:20:37.943Z,1006.95
2017-08-02T00:21:37.922Z,1006.94
2017-08-02T00:22:37.901Z,1006.92
2017-08-02T00:23:37.881Z,1006.91
2017-08-02T00:24:37.861Z,1006.87
2017-08-02T00:25:37.840Z,1006.85
2017-08-02T00:26:37.820Z,1006.84
2017-08-02T00:27:37.797Z,1006.79
2017-08-02T00:28:37.778Z,1006.83
2017-08-02T00:29:37.758Z,1006.8
2017-08-02T00:30:37.738Z,1006.8
2017-08-02T00:31:37.718Z,1006.81
2017-08-02T00:32:37.696Z,1006.8
2017-08-02T00:33:37.677Z,1006.8
2017-08-02T00:34:37.655Z,1006.8
2017-08-02T00:35:37.635Z,1006.78
2017-08-02T00:36:37.614Z,1006.75
2017-08-02T00:37:37.612Z,1006.78
2017-08-02T00:38:37.573Z,1006.79
2017-08-02T00:39:37.553Z,1006.79
2017-08-02T00:40:37.533Z,1006.77
2017-08-02T00:41:37.516Z,1006.8
2017-08-02T00:42:37.491Z,1006.79
2017-08-02T00:43:37.471Z,1006.82
2017-08-02T00:44:37.451Z,1006.75
2017-08-02T00:45:37.429Z,1006.72
2017-08-02T00:46:37.410Z,1006.72
2017-08-02T00:47:37.389Z,1006.67
2017-08-02T00:48:37.370Z,1006.67
2017-08-02T00:49:37.349Z,1006.66
2017-08-02T00:50:37.329Z,1006.65
2017-08-02T00:51:37.308Z,1006.61
2017-08-02T00:52:37.288Z,1006.62
2017-08-02T00:53:37.267Z,1006.64
2017-08-02T00:54:37.248Z,1006.6
2017-08-02T00:55:37.227Z,1006.58
2017-08-02T00:56:37.204Z,1006.56
2017-08-02T00:57:37.185Z,1006.56
2017-08-02T00:58:37.165Z,1006.54
2017-08-02T00:59:37.144Z,1006.52
2017-08-02T01:00:37.125Z,1006.53
2017-08-02T01:01:37.104Z,1006.52
2017-08-02T01:02:37.082Z,1006.54
2017-08-02T01:03:37.063Z,1006.52
2017-08-02T01:04:37.042Z,1006.54
2017-08-02T01:05:37.023Z,1006.56
2017-08-02T01:06:37.001Z,1006.53
2017-08-02T01:07:36.981Z,1006.54
2017-08-02T01:08:36.960Z,1006.55
2017-08-02T01:09:36.941Z,1006.53
2017-08-02T01:10:36.920Z,1006.58
2017-08-02T01:11:36.900Z,1006.56
2017-08-02T01:12:36.879Z,1006.58
2017-08-02T01:13:36.860Z,1006.63
2017-08-02T01:14:36.837Z,1006.62
2017-08-02T01:15:36.818Z,1006.62
2017-08-02T01:16:36.798Z,1006.63
2017-08-02T01:17:36.777Z,1006.61
2017-08-02T01:18:36.755Z,1006.6
2017-08-02T01:19:36.735Z,1006.61
2017-08-02T01:20:36.716Z,1006.61
2017-08-02T01:21:36.696Z,1006.64
2017-08-02T01:22:36.675Z,1006.66
2017-08-02T01:23:36.654Z,1006.65
2017-08-02T01:24:36.634Z,1006.66
2017-08-02T01:25:36.612Z,1006.65
2017-08-02T01:26:36.592Z,1006.62
2017-08-02T01:27:36.572Z,1006.58
2017-08-02T01:28:36.553Z,1006.57
2017-08-02T01:29:36.531Z,1006.56
2017-08-02T01:30:36.511Z,1006.58
2017-08-02T01:31:36.491Z,1006.6
2017-08-02T01:32:36.471Z,1006.56
2017-08-02T01:33:36.449Z,1006.5
2017-08-02T01:34:36.429Z,1006.49
2017-08-02T01:35:36.408Z,1006.5
2017-08-02T01:36:36.388Z,1006.51
2017-08-02T01:37:36.366Z,1006.52
2017-08-02T01:38:36.348Z,1006.49
2017-08-02T01:39:36.328Z,1006.56
2017-08-02T01:40:36.305Z,1006.51
2017-08-02T01:41:36.285Z,1006.52
2017-08-02T01:42:36.265Z,1006.54
2017-08-02T01:43:36.245Z,1006.59
2017-08-02T01:44:36.224Z,1006.58
2017-08-02T01:45:36.203Z,1006.53
2017-08-02T01:46:36.183Z,1006.54
2017-08-02T01:47:36.161Z,1006.56
2017-08-02T01:48:36.142Z,1006.58
2017-08-02T01:49:36.122Z,1006.6
2017-08-02T01:50:36.101Z,1006.57
2017-08-02T01:51:36.080Z,1006.54
2017-08-02T01:52:36.060Z,1006.52
2017-08-02T01:53:36.039Z,1006.54
2017-08-02T01:54:36.020Z,1006.58
2017-08-02T01:55:35.997Z,1006.6
2017-08-02T01:56:35.979Z,1006.55
2017-08-02T01:57:35.957Z,1006.57
2017-08-02T01:58:35.936Z,1006.57
2017-08-02T01:59:35.914Z,1006.61
2017-08-02T02:00:35.895Z,1006.58
2017-08-02T02:01:35.875Z,1006.58
2017-08-02T02:02:35.853Z,1006.6
2017-08-02T02:03:35.832Z,1006.54
2017-08-02T02:04:35.812Z,1006.53
2017-08-02T02:05:35.792Z,1006.58
2017-08-02T02:06:35.771Z,1006.56
2017-08-02T02:07:35.751Z,1006.61
2017-08-02T02:08:35.736Z,1006.61
2017-08-02T02:09:35.714Z,1006.61
2017-08-02T02:10:35.688Z,1006.64
2017-08-02T02:11:35.667Z,1006.6
2017-08-02T02:12:35.647Z,1006.59
2017-08-02T02:13:35.626Z,1006.58
2017-08-02T02:14:35.605Z,1006.53
2017-08-02T02:15:35.586Z,1006.57
2017-08-02T02:16:35.570Z,1006.55
2017-08-02T02:17:35.546Z,1006.57
2017-08-02T02:18:35.523Z,1006.57
2017-08-02T02:19:35.502Z,1006.51
2017-08-02T02:20:35.484Z,1006.53
2017-08-02T02:21:35.462Z,1006.51
2017-08-02T02:22:35.441Z,1006.51
2017-08-02T02:23:35.421Z,1006.51
2017-08-02T02:24:35.399Z,1006.55
2017-08-02T02:25:35.381Z,1006.55
2017-08-02T02:26:35.358Z,1006.54
2017-08-02T02:27:35.338Z,1006.52
2017-08-02T02:28:35.317Z,1006.55
2017-08-02T02:29:35.295Z,1006.57
2017-08-02T02:30:35.275Z,1006.55
2017-08-02T02:31:35.254Z,1006.56
2017-08-02T02:32:35.234Z,1006.58
2017-08-02T02:33:35.215Z,1006.58
2017-08-02T02:34:35.193Z,1006.63
2017-08-02T02:35:35.171Z,1006.59
2017-08-02T02:36:35.152Z,1006.63
2017-08-02T02:37:35.131Z,1006.66
2017-08-02T02:38:35.111Z,1006.65
2017-08-02T02:39:35.091Z,1006.64
2017-08-02T02:40:35.123Z,1006.63
2017-08-02T02:41:35.049Z,1006.6
2017-08-02T02:42:35.029Z,1006.63
2017-08-02T02:43:35.008Z,1006.57
2017-08-02T02:44:34.988Z,1006.53
2017-08-02T02:45:34.967Z,1006.49
2017-08-02T02:46:34.946Z,1006.47
2017-08-02T02:47:34.925Z,1006.48
2017-08-02T02:48:34.908Z,1006.44
2017-08-02T02:49:34.885Z,1006.43
2017-08-02T02:50:34.863Z,1006.33
2017-08-02T02:51:34.847Z,1006.34
2017-08-02T02:52:34.822Z,1006.41
2017-08-02T02:53:34.801Z,1006.43
2017-08-02T02:54:34.781Z,1006.5
2017-08-02T02:55:34.762Z,1006.48
2017-08-02T02:56:34.741Z,1006.5
2017-08-02T02:57:34.722Z,1006.51
2017-08-02T02:58:34.698Z,1006.51
2017-08-02T02:59:34.678Z,1006.48
2017-08-02T03:00:34.658Z,1006.51
2017-08-02T03:01:34.637Z,1006.5
2017-08-02T03:02:34.616Z,1006.48
2017-08-02T03:03:34.595Z,1006.52
2017-08-02T03:04:34.574Z,1006.53
2017-08-02T03:05:34.553Z,1006.6
2017-08-02T03:06:34.534Z,1006.61
2017-08-02T03:07:34.512Z,1006.63
2017-08-02T03:08:34.491Z,1006.66
2017-08-02T03:09:34.476Z,1006.67
2017-08-02T03:10:34.450Z,1006.73
2017-08-02T03:11:34.524Z,1006.66
2017-08-02T03:12:34.408Z,1006.61
2017-08-02T03:13:34.388Z,1006.46
2017-08-02T03:14:34.367Z,1006.5
2017-08-02T03:15:34.346Z,1006.46
2017-08-02T03:16:34.325Z,1006.49
2017-08-02T03:17:34.304Z,1006.49
2017-08-02T03:18:34.283Z,1006.5
2017-08-02T03:19:34.266Z,1006.51
2017-08-02T03:20:34.242Z,1006.49
2017-08-02T03:21:34.222Z,1006.48
2017-08-02T03:22:34.199Z,1006.47
2017-08-02T03:23:34.180Z,1006.43
2017-08-02T03:24:34.158Z,1006.44
2017-08-02T03:25:34.139Z,1006.42
2017-08-02T03:26:34.117Z,1006.5
2017-08-02T03:27:34.095Z,1006.53
2017-08-02T03:28:34.075Z,1006.56
2017-08-02T03:29:34.055Z,1006.53
2017-08-02T03:30:34.033Z,1006.5
2017-08-02T03:31:34.014Z,1006.47
2017-08-02T03:32:33.993Z,1006.38
2017-08-02T03:33:33.970Z,1006.35
2017-08-02T03:34:33.951Z,1006.36
2017-08-02T03:35:33.930Z,1006.37
2017-08-02T03:36:33.910Z,1006.37
2017-08-02T03:37:33.887Z,1006.4
2017-08-02T03:38:33.867Z,1006.38
2017-08-02T03:39:33.846Z,1006.46
2017-08-02T03:40:33.826Z,1006.41
2017-08-02T03:41:33.806Z,1006.38
2017-08-02T03:42:33.784Z,1006.35
2017-08-02T03:43:33.763Z,1006.36
2017-08-02T03:44:33.742Z,1006.36
2017-08-02T03:45:33.726Z,1006.38
2017-08-02T03:46:33.701Z,1006.34
2017-08-02T03:47:33.681Z,1006.38
2017-08-02T03:48:33.659Z,1006.46
2017-08-02T03:49:33.639Z,1006.46
2017-08-02T03:50:33.618Z,1006.5
2017-08-02T03:51:33.598Z,1006.49
2017-08-02T03:52:33.575Z,1006.44
2017-08-02T03:53:33.555Z,1006.41
2017-08-02T03:54:33.536Z,1006.39
2017-08-02T03:55:33.514Z,1006.34
2017-08-02T03:56:33.493Z,1006.4
2017-08-02T03:57:33.472Z,1006.41
2017-08-02T03:58:33.452Z,1006.41
2017-08-02T03:59:33.431Z,1006.38
2017-08-02T04:00:33.411Z,1006.42
2017-08-02T04:01:33.390Z,1006.41
2017-08-02T04:02:33.370Z,1006.38
2017-08-02T04:03:33.348Z,1006.41
2017-08-02T04:04:33.327Z,1006.41
2017-08-02T04:05:33.307Z,1006.37
2017-08-02T04:06:33.286Z,1006.34
2017-08-02T04:07:33.265Z,1006.34
2017-08-02T04:08:33.246Z,1006.33
2017-08-02T04:09:33.225Z,1006.36
2017-08-02T04:10:33.203Z,1006.38
2017-08-02T04:11:33.183Z,1006.42
2017-08-02T04:12:33.163Z,1006.43
2017-08-02T04:13:33.147Z,1006.43
2017-08-02T04:14:33.121Z,1006.45
2017-08-02T04:15:33.102Z,1006.45
2017-08-02T04:16:33.132Z,1006.45
2017-08-02T04:17:33.060Z,1006.45
2017-08-02T04:18:33.040Z,1006.49
2017-08-02T04:19:33.018Z,1006.46
2017-08-02T04:20:32.998Z,1006.45
2017-08-02T04:21:32.978Z,1006.41
2017-08-02T04:22:32.957Z,1006.41
2017-08-02T04:23:32.935Z,1006.44
2017-08-02T04:24:32.916Z,1006.47
2017-08-02T04:25:32.894Z,1006.5
2017-08-02T04:26:32.875Z,1006.49
2017-08-02T04:27:32.855Z,1006.48
2017-08-02T04:28:32.833Z,1006.49
2017-08-02T04:29:32.812Z,1006.51
2017-08-02T04:30:32.792Z,1006.51
2017-08-02T04:31:32.770Z,1006.51
2017-08-02T04:32:32.751Z,1006.48
2017-08-02T04:33:32.734Z,1006.51
2017-08-02T04:34:32.710Z,1006.48
2017-08-02T04:35:32.689Z,1006.44
2017-08-02T04:36:32.668Z,1006.39
2017-08-02T04:37:32.648Z,1006.4
2017-08-02T04:38:32.628Z,1006.37
2017-08-02T04:39:32.607Z,1006.37
2017-08-02T04:40:32.587Z,1006.37
2017-08-02T04:41:32.567Z,1006.32
2017-08-02T04:42:32.546Z,1006.33
2017-08-02T04:43:32.525Z,1006.35
2017-08-02T04:44:32.505Z,1006.38
2017-08-02T04:45:32.485Z,1006.37
2017-08-02T04:46:32.464Z,1006.39
2017-08-02T04:47:32.444Z,1006.38
2017-08-02T04:48:32.425Z,1006.37
2017-08-02T04:49:32.405Z,1006.39
2017-08-02T04:50:32.387Z,1006.36
2017-08-02T04:51:32.363Z,1006.34
2017-08-02T04:52:32.344Z,1006.33
2017-08-02T04:53:32.325Z,1006.34
2017-08-02T04:54:32.303Z,1006.32
2017-08-02T04:55:32.285Z,1006.39
2017-08-02T04:56:32.263Z,1006.4
2017-08-02T04:57:32.244Z,1006.43
2017-08-02T04:58:32.225Z,1006.43
2017-08-02T04:59:32.206Z,1006.44
2017-08-02T05:00:32.184Z,1006.43
2017-08-02T05:01:32.216Z,1006.41
2017-08-02T05:02:32.145Z,1006.4
2017-08-02T05:03:32.126Z,1006.4
2017-08-02T05:04:32.107Z,1006.44
2017-08-02T05:05:32.086Z,1006.43
2017-08-02T05:06:32.067Z,1006.48
2017-08-02T05:07:32.049Z,1006.45
2017-08-02T05:08:32.028Z,1006.45
2017-08-02T05:09:32.007Z,1006.45
2017-08-02T05:10:31.989Z,1006.46
2017-08-02T05:11:31.970Z,1006.47
2017-08-02T05:12:31.950Z,1006.44
2017-08-02T05:13:31.930Z,1006.5
2017-08-02T05:14:32.114Z,1006.53
2017-08-02T05:15:32.201Z,1006.52
2017-08-02T05:16:32.022Z,1006.51
2017-08-02T05:17:31.857Z,1006.51
2017-08-02T05:18:31.835Z,1006.49
2017-08-02T05:19:32.060Z,1006.54
2017-08-02T05:20:32.052Z,1006.54
2017-08-02T05:21:31.797Z,1006.47
2017-08-02T05:22:31.759Z,1006.53
2017-08-02T05:23:31.750Z,1006.55
2017-08-02T05:24:31.720Z,1006.5
2017-08-02T05:25:31.700Z,1006.48
2017-08-02T05:26:31.682Z,1006.47
2017-08-02T05:27:31.662Z,1006.48
2017-08-02T05:28:31.643Z,1006.52
2017-08-02T05:29:31.679Z,1006.51
2017-08-02T05:30:31.605Z,1006.51
2017-08-02T05:31:31.585Z,1006.51
2017-08-02T05:32:31.569Z,1006.52
2017-08-02T05:33:31.550Z,1006.5
2017-08-02T05:34:31.530Z,1006.54
2017-08-02T05:35:31.513Z,1006.57
2017-08-02T05:36:31.494Z,1006.59
2017-08-02T05:37:31.477Z,1006.63
2017-08-02T05:38:31.477Z,1006.64
2017-08-02T05:39:31.437Z,1006.69
2017-08-02T05:40:31.416Z,1006.71
2017-08-02T05:41:31.399Z,1006.79
2017-08-02T05:42:31.379Z,1006.71
2017-08-02T05:43:31.362Z,1006.71
2017-08-02T05:44:31.353Z,1006.74
2017-08-02T05:45:31.323Z,1006.75
2017-08-02T05:46:31.304Z,1006.74
2017-08-02T05:47:31.285Z,1006.71
2017-08-02T05:48:31.268Z,1006.63
2017-08-02T05:49:31.249Z,1006.63
2017-08-02T05:50:31.229Z,1006.61
2017-08-02T05:51:31.213Z,1006.64
2017-08-02T05:52:31.193Z,1006.62
2017-08-02T05:53:31.174Z,1006.59
2017-08-02T05:54:31.157Z,1006.54
2017-08-02T05:55:31.138Z,1006.6
2017-08-02T05:56:31.118Z,1006.57
2017-08-02T05:57:31.100Z,1006.62
2017-08-02T05:58:31.081Z,1006.65
2017-08-02T05:59:31.063Z,1006.68
2017-08-02T06:00:31.045Z,1006.71
2017-08-02T06:01:31.026Z,1006.66
2017-08-02T06:02:31.007Z,1006.71
2017-08-02T06:03:30.988Z,1006.74
2017-08-02T06:04:30.972Z,1006.68
2017-08-02T06:05:30.951Z,1006.72
2017-08-02T06:06:31.192Z,1006.71
2017-08-02T06:07:31.181Z,1006.69
2017-08-02T06:08:31.183Z,1006.75
2017-08-02T06:09:30.992Z,1006.75
2017-08-02T06:10:30.857Z,1006.83
2017-08-02T06:11:30.839Z,1006.84
2017-08-02T06:12:30.819Z,1006.87
2017-08-02T06:13:30.801Z,1006.91
2017-08-02T06:14:30.781Z,1006.89
2017-08-02T06:15:30.764Z,1006.88
2017-08-02T06:16:30.746Z,1006.86
2017-08-02T06:17:30.726Z,1006.85
2017-08-02T06:18:30.706Z,1006.83
2017-08-02T06:19:30.688Z,1006.83
2017-08-02T06:20:30.669Z,1006.83
2017-08-02T06:21:30.649Z,1006.87
2017-08-02T06:22:30.632Z,1006.84
2017-08-02T06:23:30.611Z,1006.84
2017-08-02T06:24:30.593Z,1006.78
2017-08-02T06:25:30.575Z,1006.78
2017-08-02T06:26:30.554Z,1006.77
2017-08-02T06:27:30.848Z,1006.83
2017-08-02T06:28:30.566Z,1006.84
2017-08-02T06:29:30.520Z,1006.92
2017-08-02T06:30:30.733Z,1006.94
2017-08-02T06:31:30.709Z,1006.93
2017-08-02T06:32:30.440Z,1006.99
2017-08-02T06:33:30.420Z,1006.98
2017-08-02T06:34:30.402Z,1006.92
2017-08-02T06:35:30.383Z,1006.95
2017-08-02T06:36:30.364Z,1006.95
2017-08-02T06:37:30.349Z,1006.95
2017-08-02T06:38:30.415Z,1006.95
2017-08-02T06:39:30.307Z,1007.01
2017-08-02T06:40:30.286Z,1006.97
2017-08-02T06:41:30.268Z,1006.93
2017-08-02T06:42:30.248Z,1006.94
2017-08-02T06:43:30.228Z,1006.88
2017-08-02T06:44:30.208Z,1006.89
2017-08-02T06:45:30.189Z,1006.93
2017-08-02T06:46:30.171Z,1006.92
2017-08-02T06:47:30.151Z,1006.83
2017-08-02T06:48:30.131Z,1006.81
2017-08-02T06:49:30.115Z,1006.79
2017-08-02T06:50:30.098Z,1006.79
2017-08-02T06:51:30.074Z,1006.83
2017-08-02T06:52:30.056Z,1006.85
2017-08-02T06:53:30.036Z,1006.84
2017-08-02T06:54:30.105Z,1006.83
2017-08-02T06:55:30.012Z,1006.88
2017-08-02T06:56:30.002Z,1006.83
2017-08-02T06:57:29.961Z,1006.81
2017-08-02T06:58:29.961Z,1006.79
2017-08-02T06:59:29.924Z,1006.81
2017-08-02T07:00:29.906Z,1006.83
2017-08-02T07:01:29.888Z,1006.87
2017-08-02T07:02:29.869Z,1006.86
2017-08-02T07:03:29.851Z,1006.92
2017-08-02T07:04:29.833Z,1006.92
2017-08-02T07:05:29.816Z,1006.89
2017-08-02T07:06:29.798Z,1006.91
2017-08-02T07:07:29.780Z,1006.93
2017-08-02T07:08:29.762Z,1006.93
2017-08-02T07:09:29.743Z,1006.93
2017-08-02T07:10:29.969Z,1006.95
2017-08-02T07:11:29.707Z,1007.04
2017-08-02T07:12:29.720Z,1007.05
2017-08-02T07:13:29.671Z,1007
2017-08-02T07:14:29.653Z,1007.02
2017-08-02T07:15:29.636Z,1007.01
2017-08-02T07:16:29.617Z,1007.01
2017-08-02T07:17:29.696Z,1007
2017-08-02T07:18:29.734Z,1006.96
2017-08-02T07:19:29.565Z,1006.92
2017-08-02T07:20:29.548Z,1006.91
2017-08-02T07:21:29.528Z,1006.93
2017-08-02T07:22:29.512Z,1006.89
2017-08-02T07:23:29.493Z,1006.89
2017-08-02T07:24:29.477Z,1006.88
2017-08-02T07:25:29.460Z,1006.93
2017-08-02T07:26:29.443Z,1006.91
2017-08-02T07:27:29.427Z,1006.91
2017-08-02T07:28:29.411Z,1006.86
2017-08-02T07:29:29.393Z,1006.85
2017-08-02T07:30:29.378Z,1006.82
2017-08-02T07:31:29.363Z,1006.81
2017-08-02T07:32:29.346Z,1006.85
2017-08-02T07:33:29.330Z,1006.82
2017-08-02T07:34:29.316Z,1006.88
2017-08-02T07:35:29.299Z,1006.88
2017-08-02T07:36:29.286Z,1006.87
2017-08-02T07:37:29.271Z,1006.91
2017-08-02T07:38:29.255Z,1006.9
2017-08-02T07:39:29.263Z,1006.95
2017-08-02T07:40:29.228Z,1006.95
2017-08-02T07:41:29.213Z,1007.02
2017-08-02T07:42:29.198Z,1006.98
2017-08-02T07:43:29.184Z,1006.99
2017-08-02T07:44:29.173Z,1006.99
2017-08-02T07:45:29.158Z,1006.99
2017-08-02T07:46:29.145Z,1006.96
2017-08-02T07:47:29.132Z,1006.99
2017-08-02T07:48:29.119Z,1006.99
2017-08-02T07:49:29.105Z,1006.98
2017-08-02T07:50:29.095Z,1006.97
2017-08-02T07:51:29.078Z,1007
2017-08-02T07:52:29.065Z,1007.03
2017-08-02T07:53:29.053Z,1007
2017-08-02T07:54:29.041Z,1006.97
2017-08-02T07:55:29.026Z,1006.95
2017-08-02T07:56:29.014Z,1006.9
2017-08-02T07:57:29.000Z,1006.95
2017-08-02T07:58:28.988Z,1006.95
2017-08-02T07:59:28.975Z,1006.96
2017-08-02T08:00:28.963Z,1006.98
2017-08-02T08:01:28.950Z,1006.95
2017-08-02T08:02:28.937Z,1006.9
2017-08-02T08:03:28.927Z,1006.92
2017-08-02T08:04:29.052Z,1006.94
2017-08-02T08:05:28.993Z,1006.93
2017-08-02T08:06:28.891Z,1006.92
2017-08-02T08:07:28.879Z,1006.81
2017-08-02T08:08:28.867Z,1006.84
2017-08-02T08:09:28.857Z,1006.86
2017-08-02T08:10:28.847Z,1006.77
2017-08-02T08:11:28.832Z,1006.71
2017-08-02T08:12:28.822Z,1006.74
2017-08-02T08:13:28.812Z,1006.79
2017-08-02T08:14:28.803Z,1006.72
2017-08-02T08:15:28.791Z,1006.71
2017-08-02T08:16:28.780Z,1006.72
2017-08-02T08:17:28.772Z,1006.79
2017-08-02T08:18:28.761Z,1006.73
2017-08-02T08:19:28.751Z,1006.83
2017-08-02T08:20:28.742Z,1006.8
2017-08-02T08:21:28.782Z,1006.68
2017-08-02T08:22:28.723Z,1006.77
2017-08-02T08:23:28.714Z,1006.81
2017-08-02T08:24:28.706Z,1006.78
2017-08-02T08:25:28.697Z,1006.76
2017-08-02T08:26:28.686Z,1006.74
2017-08-02T08:27:28.677Z,1006.86
2017-08-02T08:28:28.669Z,1006.89
2017-08-02T08:29:28.658Z,1006.91
2017-08-02T08:30:28.649Z,1006.88
2017-08-02T08:31:28.919Z,1006.81
2017-08-02T08:32:28.748Z,1006.81
2017-08-02T08:33:28.719Z,1006.84
2017-08-02T08:34:28.611Z,1006.91
2017-08-02T08:35:28.603Z,1006.88
2017-08-02T08:36:28.593Z,1006.87
2017-08-02T08:37:28.582Z,1007
2017-08-02T08:38:28.572Z,1006.92
2017-08-02T08:39:28.562Z,1006.93
2017-08-02T08:40:28.550Z,1006.96
2017-08-02T08:41:28.541Z,1006.95
2017-08-02T08:42:28.530Z,1006.98
2017-08-02T08:43:28.519Z,1007.07
2017-08-02T08:44:28.507Z,1007
2017-08-02T08:45:28.496Z,1007.1
2017-08-02T08:46:28.491Z,1006.99
2017-08-02T08:47:28.727Z,1007.04
2017-08-02T08:48:28.463Z,1007.13
2017-08-02T08:49:28.471Z,1007.13
2017-08-02T08:50:28.445Z,1007.13
2017-08-02T08:51:28.432Z,1006.67
2017-08-02T08:52:28.469Z,1007.22
2017-08-02T08:53:28.408Z,1007.22
2017-08-02T08:54:28.397Z,1007.13
2017-08-02T08:55:28.486Z,1007.3
2017-08-02T08:56:28.623Z,1007.22
2017-08-02T08:57:28.362Z,1007.22
2017-08-02T08:58:28.351Z,1007.19
2017-08-02T08:59:28.341Z,1007.19
2017-08-02T09:00:28.331Z,1007.27
2017-08-02T09:01:28.320Z,1007.3
2017-08-02T09:02:28.309Z,1007.28
2017-08-02T09:03:28.298Z,1007.18
2017-08-02T09:04:28.286Z,1007.28
2017-08-02T09:05:28.277Z,1007.18
2017-08-02T09:06:28.275Z,1007.18
2017-08-02T09:07:28.255Z,1007.19
2017-08-02T09:08:28.245Z,1007.21
2017-08-02T09:09:28.232Z,1007.16
2017-08-02T09:10:28.222Z,1007.23
2017-08-02T09:11:28.210Z,1007.2
2017-08-02T09:12:28.286Z,1007.24
2017-08-02T09:13:28.464Z,1007.24
2017-08-02T09:14:28.204Z,1007.25
2017-08-02T09:15:28.169Z,1007.27
2017-08-02T09:16:28.159Z,1007.35
2017-08-02T09:17:28.149Z,1007.36
2017-08-02T09:18:28.138Z,1007.28
2017-08-02T09:19:28.127Z,1007.34
2017-08-02T09:20:28.117Z,1007.34
2017-08-02T09:21:28.105Z,1007.44
2017-08-02T09:22:28.107Z,1007.41
2017-08-02T09:23:28.084Z,1007.41
2017-08-02T09:24:28.072Z,1007.37
2017-08-02T09:25:28.066Z,1007.42
2017-08-02T09:26:28.051Z,1007.43
2017-08-02T09:27:28.039Z,1007.55
2017-08-02T09:28:28.027Z,1007.46
2017-08-02T09:29:28.016Z,1007.45
2017-08-02T09:30:28.006Z,1007.47
2017-08-02T09:31:27.992Z,1007.49
2017-08-02T09:32:27.981Z,1007.5
2017-08-02T09:33:27.971Z,1007.53
2017-08-02T09:34:27.958Z,1007.53
2017-08-02T09:35:27.946Z,1007.44
2017-08-02T09:36:27.936Z,1007.5
2017-08-02T09:37:28.074Z,1007.54
2017-08-02T09:38:27.913Z,1007.53
2017-08-02T09:39:27.901Z,1007.49
2017-08-02T09:40:27.892Z,1007.53
2017-08-02T09:41:27.882Z,1007.56
2017-08-02T09:42:27.870Z,1007.54
2017-08-02T09:43:27.860Z,1007.58
2017-08-02T09:44:27.849Z,1007.6
2017-08-02T09:45:27.934Z,1007.5
2017-08-02T09:46:27.830Z,1007.54
2017-08-02T09:47:27.821Z,1007.54
2017-08-02T09:48:27.811Z,1007.57
2017-08-02T09:49:27.802Z,1007.6
2017-08-02T09:50:27.792Z,1007.61
2017-08-02T09:51:27.783Z,1007.58
2017-08-02T09:52:27.774Z,1007.6
2017-08-02T09:53:27.764Z,1007.61
2017-08-02T09:54:27.756Z,1007.63
2017-08-02T09:55:27.746Z,1007.55
2017-08-02T09:56:27.738Z,1007.59
2017-08-02T09:57:27.728Z,1007.5
2017-08-02T09:58:27.720Z,1007.51
2017-08-02T09:59:27.709Z,1007.57
2017-08-02T10:00:27.703Z,1007.58
2017-08-02T10:01:27.807Z,1007.56
2017-08-02T10:02:27.684Z,1007.56
2017-08-02T10:03:27.677Z,1007.58
2017-08-02T10:04:27.698Z,1007.57
2017-08-02T10:05:27.658Z,1007.62
2017-08-02T10:06:27.650Z,1007.55
2017-08-02T10:07:27.642Z,1007.67
2017-08-02T10:08:27.641Z,1007.6
2017-08-02T10:09:27.751Z,1007.62
2017-08-02T10:10:27.794Z,1007.61
2017-08-02T10:11:27.673Z,1007.64
2017-08-02T10:12:27.781Z,1007.63
2017-08-02T10:13:27.599Z,1007.64
2017-08-02T10:14:27.593Z,1007.59
2017-08-02T10:15:27.585Z,1007.5
2017-08-02T10:16:27.580Z,1007.53
2017-08-02T10:17:27.656Z,1007.57
2017-08-02T10:18:27.569Z,1007.54
2017-08-02T10:19:27.564Z,1007.6
2017-08-02T10:20:27.558Z,1007.57
2017-08-02T10:21:27.554Z,1007.65
2017-08-02T10:22:27.549Z,1007.55
2017-08-02T10:23:27.544Z,1007.55
2017-08-02T10:24:27.540Z,1007.55
2017-08-02T10:25:27.534Z,1007.53
2017-08-02T10:26:27.527Z,1007.48
2017-08-02T10:27:27.523Z,1007.49
2017-08-02T10:28:27.517Z,1007.49
2017-08-02T10:29:27.516Z,1007.52
2017-08-02T10:30:27.505Z,1007.51
2017-08-02T10:31:27.500Z,1007.5
2017-08-02T10:32:27.588Z,1007.49
2017-08-02T10:33:27.544Z,1007.5
2017-08-02T10:34:27.751Z,1007.45
2017-08-02T10:35:27.479Z,1007.43
2017-08-02T10:36:27.475Z,1007.53
2017-08-02T10:37:27.468Z,1007.57
2017-08-02T10:38:27.463Z,1007.49
2017-08-02T10:39:27.458Z,1007.51
2017-08-02T10:40:27.453Z,1007.5
2017-08-02T10:41:27.770Z,1007.46
2017-08-02T10:42:27.440Z,1007.48
2017-08-02T10:43:27.433Z,1007.43
2017-08-02T10:44:27.426Z,1007.45
2017-08-02T10:45:27.422Z,1007.38
2017-08-02T10:46:27.807Z,1007.42
2017-08-02T10:47:27.406Z,1007.39
2017-08-02T10:48:27.397Z,1007.35
2017-08-02T10:49:27.389Z,1007.41
2017-08-02T10:50:27.382Z,1007.41
2017-08-02T10:51:27.374Z,1007.41
2017-08-02T10:52:27.545Z,1007.41
2017-08-02T10:53:27.359Z,1007.41
2017-08-02T10:54:27.351Z,1007.43
2017-08-02T10:55:27.342Z,1007.4
2017-08-02T10:56:27.335Z,1007.46
2017-08-02T10:57:27.327Z,1007.48
2017-08-02T10:58:27.320Z,1007.46
2017-08-02T10:59:27.310Z,1007.42
2017-08-02T11:00:27.303Z,1007.43
2017-08-02T11:01:27.296Z,1007.45
2017-08-02T11:02:27.290Z,1007.45
2017-08-02T11:03:27.280Z,1007.43
2017-08-02T11:04:27.273Z,1007.42
2017-08-02T11:05:27.266Z,1007.51
2017-08-02T11:06:27.257Z,1007.5
2017-08-02T11:07:27.249Z,1007.55
2017-08-02T11:08:27.241Z,1007.48
2017-08-02T11:09:27.235Z,1007.53
2017-08-02T11:10:27.229Z,1007.52
2017-08-02T11:11:27.312Z,1007.56
2017-08-02T11:12:27.300Z,1007.58
2017-08-02T11:13:27.201Z,1007.55
2017-08-02T11:14:27.191Z,1007.59
2017-08-02T11:15:27.186Z,1007.56
2017-08-02T11:16:27.175Z,1007.53
2017-08-02T11:17:27.164Z,1007.52
2017-08-02T11:18:27.158Z,1007.49
2017-08-02T11:19:27.148Z,1007.42
2017-08-02T11:20:27.139Z,1007.37
2017-08-02T11:21:27.131Z,1007.44
2017-08-02T11:22:27.126Z,1007.44
2017-08-02T11:23:27.114Z,1007.4
2017-08-02T11:24:27.104Z,1007.44
2017-08-02T11:25:27.114Z,1007.37
2017-08-02T11:26:27.085Z,1007.39
2017-08-02T11:27:27.077Z,1007.34
2017-08-02T11:28:27.066Z,1007.42
2017-08-02T11:29:27.059Z,1007.44
2017-08-02T11:30:27.050Z,1007.43
2017-08-02T11:31:27.041Z,1007.44
2017-08-02T11:32:27.032Z,1007.46
2017-08-02T11:33:27.021Z,1007.53
2017-08-02T11:34:27.106Z,1007.39
2017-08-02T11:35:27.096Z,1007.47
2017-08-02T11:36:26.998Z,1007.4
2017-08-02T11:37:26.986Z,1007.39
2017-08-02T11:38:26.978Z,1007.42
2017-08-02T11:39:26.966Z,1007.43
2017-08-02T11:40:27.063Z,1007.36
2017-08-02T11:41:26.951Z,1007.43
2017-08-02T11:42:26.943Z,1007.43
2017-08-02T11:43:26.935Z,1007.44
2017-08-02T11:44:26.929Z,1007.37
2017-08-02T11:45:26.919Z,1007.35
2017-08-02T11:46:26.912Z,1007.41
2017-08-02T11:47:26.906Z,1007.42
2017-08-02T11:48:26.947Z,1007.43
2017-08-02T11:49:26.889Z,1007.48
2017-08-02T11:50:26.881Z,1007.49
2017-08-02T11:51:26.874Z,1007.55
2017-08-02T11:52:26.868Z,1007.49
2017-08-02T11:53:26.909Z,1007.44
2017-08-02T11:54:26.852Z,1007.5
2017-08-02T11:55:26.844Z,1007.48
2017-08-02T11:56:26.837Z,1007.4
2017-08-02T11:57:26.829Z,1007.41
2017-08-02T11:58:26.821Z,1007.41
2017-08-02T11:59:26.813Z,1007.43
2017-08-02T12:00:26.805Z,1007.41
2017-08-02T12:01:26.797Z,1007.39
2017-08-02T12:02:26.788Z,1007.37
2017-08-02T12:03:26.783Z,1007.41
2017-08-02T12:04:26.887Z,1007.42
2017-08-02T12:05:26.763Z,1007.34
2017-08-02T12:06:26.756Z,1007.29
2017-08-02T12:07:26.749Z,1007.23
2017-08-02T12:08:26.942Z,1007.21